Time;durP1;ratioP1;P1;durP2;ratioP2;P2;SDS_P1;SDS_P2;PMS_P1;PMS_P2;Temp;Humidity;BMP_temperature;BMP_pressure;BME280_temperature;BME280_humidity;BME280_pressure;Samples;Min_cycle;Max_cycle;Signal;HPM_P1;HPM_P2
2022/11/07 00:00:31;;;;;;;4.38;3.97;;;;;;;;;;5013133;28;20441;-89
2022/11/07 00:02:59;;;;;;;5.97;2.75;;;;;;;;;;5012453;28;20100;-89
2022/11/07 00:05:26;;;;;;;2.38;2.17;;;;;;;;;;5013206;28;20456;-89
2022/11/07 00:07:52;;;;;;;2.25;2.13;;;;;;;;;;5013078;28;20049;-89
2022/11/07 00:10:19;;;;;;;4.45;4.15;;;;;;;;;;5013156;28;20100;-89
2022/11/07 00:12:45;;;;;;;2.22;2.10;;;;;;;;;;5012963;28;20054;-89
2022/11/07 00:15:12;;;;;;;5.13;4.45;;;;;;;;;;5013135;28;20045;-89
2022/11/07 00:17:38;;;;;;;2.05;1.95;;;;;;;;;;5012737;28;20049;-88
2022/11/07 00:20:07;;;;;;;6.72;2.97;;;;;;;;;;5013273;28;20057;-88
2022/11/07 00:22:33;;;;;;;3.08;2.92;;;;;;;;;;5013034;28;20057;-90
2022/11/07 00:25:00;;;;;;;3.08;2.65;;;;;;;;;;5013002;28;20046;-91
2022/11/07 00:27:26;;;;;;;2.08;1.98;;;;;;;;;;5013214;28;20457;-89
2022/11/07 00:29:53;;;;;;;2.92;2.38;;;;;;;;;;5013206;28;20096;-89
2022/11/07 00:32:20;;;;;;;3.42;2.92;;;;;;;;;;5012747;28;20042;-89
2022/11/07 00:34:47;;;;;;;2.20;2.08;;;;;;;;;;5034447;28;20044;-89
2022/11/07 00:37:15;;;;;;;3.10;2.90;;;;;;;;;;5052656;28;20057;-89
2022/11/07 00:39:41;;;;;;;4.38;4.07;;;;;;;;;;5052562;28;20111;-89
2022/11/07 00:42:08;;;;;;;5.90;4.50;;;;;;;;;;5052461;28;20053;-89
2022/11/07 00:44:34;;;;;;;6.20;1.90;;;;;;;;;;5052281;28;20455;-88
2022/11/07 00:47:01;;;;;;;2.85;2.60;;;;;;;;;;5052548;28;20110;-89
2022/11/07 00:49:27;;;;;;;2.53;2.33;;;;;;;;;;5052226;28;20053;-89
2022/11/07 00:51:54;;;;;;;2.35;2.17;;;;;;;;;;5012436;28;20476;-88
2022/11/07 00:54:22;;;;;;;2.33;2.13;;;;;;;;;;5012868;28;20088;-89
2022/11/07 00:56:48;;;;;;;3.30;3.10;;;;;;;;;;5012675;28;20054;-89
2022/11/07 00:59:15;;;;;;;2.83;2.70;;;;;;;;;;5012377;28;20046;-89
2022/11/07 01:01:41;;;;;;;1.88;1.77;;;;;;;;;;5012803;28;20050;-89
2022/11/07 01:06:55;;;;;;;3.33;2.88;;;;;;;;;;5030436;28;20120;-89
2022/11/07 01:09:23;;;;;;;3.05;2.85;;;;;;;;;;5037594;28;20095;-89
2022/11/07 01:11:49;;;;;;;3.22;2.92;;;;;;;;;;5052343;28;20477;-89
2022/11/07 01:14:17;;;;;;;2.70;2.50;;;;;;;;;;5051971;28;20045;-88
2022/11/07 01:16:44;;;;;;;2.80;2.60;;;;;;;;;;5052165;28;20049;-89
2022/11/07 01:19:10;;;;;;;2.92;2.70;;;;;;;;;;5051697;28;20468;-89
2022/11/07 01:21:37;;;;;;;1.90;1.80;;;;;;;;;;5049287;28;20053;-90
2022/11/07 01:24:04;;;;;;;3.80;3.50;;;;;;;;;;5035970;28;20050;-89
2022/11/07 01:26:32;;;;;;;2.58;2.25;;;;;;;;;;5035640;28;20464;-89
2022/11/07 01:28:58;;;;;;;2.40;2.30;;;;;;;;;;5035545;28;20505;-90
2022/11/07 01:31:25;;;;;;;2.08;1.98;;;;;;;;;;5036128;28;20049;-91
2022/11/07 01:33:51;;;;;;;1.77;1.67;;;;;;;;;;5035242;28;20468;-91
2022/11/07 01:36:18;;;;;;;1.65;1.55;;;;;;;;;;5036016;28;20045;-90
2022/11/07 01:38:47;;;;;;;2.85;2.65;;;;;;;;;;5035822;28;20513;-91
2022/11/07 01:41:24;;;;;;;2.97;2.67;;;;;;;;;;5035602;28;20522;-91
2022/11/07 01:43:53;;;;;;;3.38;3.17;;;;;;;;;;5035884;28;20099;-91
2022/11/07 01:46:21;;;;;;;3.95;3.65;;;;;;;;;;5035851;28;20053;-91
2022/11/07 01:48:50;;;;;;;3.05;2.85;;;;;;;;;;5035427;28;20049;-91
2022/11/07 01:51:18;;;;;;;4.95;4.45;;;;;;;;;;5054992;28;20100;-90
2022/11/07 01:53:45;;;;;;;2.45;2.25;;;;;;;;;;5055102;28;20053;-89
2022/11/07 01:56:14;;;;;;;3.55;3.25;;;;;;;;;;5037843;28;20050;-89
2022/11/07 01:58:41;;;;;;;5.03;4.72;;;;;;;;;;5035575;28;20068;-89
2022/11/07 02:01:08;;;;;;;3.97;2.80;;;;;;;;;;5052566;28;20132;-89
2022/11/07 02:03:35;;;;;;;4.38;3.97;;;;;;;;;;5054190;28;20447;-89
2022/11/07 02:06:05;;;;;;;7.35;5.20;;;;;;;;;;5054804;28;20098;-89
2022/11/07 02:08:33;;;;;;;3.58;3.08;;;;;;;;;;5054821;28;20048;-90
2022/11/07 02:11:01;;;;;;;4.15;3.85;;;;;;;;;;5054682;28;20052;-89
2022/11/07 02:13:28;;;;;;;4.22;3.88;;;;;;;;;;5054744;28;20055;-88
2022/11/07 02:15:55;;;;;;;3.90;3.30;;;;;;;;;;5054545;28;20052;-90
2022/11/07 02:18:23;;;;;;;4.97;4.43;;;;;;;;;;5055185;28;20051;-90
2022/11/07 02:20:51;;;;;;;5.30;4.93;;;;;;;;;;5055161;28;20053;-90
2022/11/07 02:23:20;;;;;;;2.85;2.60;;;;;;;;;;5054794;28;20094;-90
2022/11/07 02:25:48;;;;;;;6.10;5.00;;;;;;;;;;5055011;28;20044;-90
2022/11/07 02:28:15;;;;;;;6.05;5.45;;;;;;;;;;5045005;28;20057;-90
2022/11/07 02:30:42;;;;;;;4.18;3.92;;;;;;;;;;5034857;28;20111;-90
2022/11/07 02:33:18;;;;;;;3.08;2.83;;;;;;;;;;5033829;28;20050;-90
2022/11/07 02:35:45;;;;;;;4.28;2.97;;;;;;;;;;5034466;28;20053;-90
2022/11/07 02:38:13;;;;;;;7.88;3.78;;;;;;;;;;5034626;28;20049;-90
2022/11/07 02:40:40;;;;;;;4.40;4.00;;;;;;;;;;5034204;28;20100;-89
2022/11/07 02:43:09;;;;;;;4.03;3.72;;;;;;;;;;5034520;28;20053;-90
2022/11/07 02:45:37;;;;;;;3.78;3.20;;;;;;;;;;5034088;28;20050;-90
2022/11/07 02:48:04;;;;;;;4.13;3.70;;;;;;;;;;5034325;28;20061;-89
2022/11/07 02:50:30;;;;;;;4.25;3.85;;;;;;;;;;5043970;28;20088;-89
2022/11/07 02:52:57;;;;;;;4.60;4.30;;;;;;;;;;5054242;28;20053;-90
2022/11/07 02:55:23;;;;;;;2.65;2.45;;;;;;;;;;5053764;28;20167;-89
2022/11/07 02:57:50;;;;;;;6.07;5.68;;;;;;;;;;5054247;28;20052;-89
2022/11/07 03:00:17;;;;;;;15.90;5.50;;;;;;;;;;5053924;28;20048;-90
2022/11/07 03:02:46;;;;;;;4.75;3.53;;;;;;;;;;5037244;28;20131;-89
2022/11/07 03:05:13;;;;;;;4.32;4.03;;;;;;;;;;5033181;28;20498;-90
2022/11/07 03:07:41;;;;;;;8.48;5.35;;;;;;;;;;5034251;28;20050;-90
2022/11/07 03:10:07;;;;;;;4.28;3.58;;;;;;;;;;5033724;28;20435;-90
2022/11/07 03:12:34;;;;;;;2.53;2.33;;;;;;;;;;5033719;28;20057;-90
2022/11/07 03:15:00;;;;;;;1.63;1.45;;;;;;;;;;5033990;28;20115;-89
2022/11/07 03:17:28;;;;;;;5.03;4.65;;;;;;;;;;5033723;28;20560;-90
2022/11/07 03:19:55;;;;;;;5.93;4.32;;;;;;;;;;5033537;28;20762;-90
2022/11/07 03:22:22;;;;;;;5.75;4.72;;;;;;;;;;5034037;28;20107;-91
2022/11/07 03:24:48;;;;;;;8.35;3.47;;;;;;;;;;5033917;28;20041;-91
2022/11/07 03:27:15;;;;;;;3.33;3.13;;;;;;;;;;5033500;28;20049;-90
2022/11/07 03:29:42;;;;;;;3.70;3.08;;;;;;;;;;5033583;28;20046;-90
2022/11/07 03:32:08;;;;;;;5.35;4.95;;;;;;;;;;5033528;28;20489;-90
2022/11/07 03:34:36;;;;;;;4.50;4.10;;;;;;;;;;5016494;28;20045;-91
2022/11/07 03:37:03;;;;;;;3.05;2.85;;;;;;;;;;5013722;28;20497;-91
2022/11/07 03:39:29;;;;;;;3.47;3.22;;;;;;;;;;5013731;28;20046;-91
2022/11/07 03:41:56;;;;;;;4.63;4.22;;;;;;;;;;5013818;28;20438;-91
2022/11/07 03:44:22;;;;;;;8.48;5.07;;;;;;;;;;5013629;28;20049;-90
2022/11/07 03:46:49;;;;;;;5.50;5.00;;;;;;;;;;5013592;28;20501;-91
2022/11/07 03:49:15;;;;;;;10.15;5.32;;;;;;;;;;5013689;28;20104;-89
2022/11/07 03:51:43;;;;;;;4.75;4.13;;;;;;;;;;5013707;28;20448;-90
2022/11/07 03:54:10;;;;;;;6.13;4.95;;;;;;;;;;5013515;28;20046;-89
2022/11/07 03:56:36;;;;;;;3.97;3.58;;;;;;;;;;5013297;28;20054;-89
2022/11/07 03:59:03;;;;;;;4.57;4.28;;;;;;;;;;5013374;28;20104;-89
2022/11/07 04:01:29;;;;;;;5.45;4.97;;;;;;;;;;5040639;28;20107;-90
2022/11/07 04:03:56;;;;;;;6.38;3.92;;;;;;;;;;5052621;28;20052;-90
2022/11/07 04:06:22;;;;;;;9.57;5.60;;;;;;;;;;5041553;28;20054;-90
2022/11/07 04:08:50;;;;;;;9.05;5.13;;;;;;;;;;5032765;28;20137;-89
2022/11/07 04:19:26;;;;;;;4.15;3.85;;;;;;;;;;5032414;28;20060;-89
2022/11/07 04:21:52;;;;;;;6.65;4.57;;;;;;;;;;5032728;28;20049;-89
2022/11/07 04:24:20;;;;;;;5.18;3.47;;;;;;;;;;5032874;28;20107;-90
2022/11/07 04:29:31;;;;;;;3.30;3.08;;;;;;;;;;5032972;28;20076;-89
2022/11/07 04:31:57;;;;;;;3.70;3.50;;;;;;;;;;5048920;28;20044;-90
2022/11/07 04:34:24;;;;;;;4.53;4.13;;;;;;;;;;5052375;28;20493;-91
2022/11/07 04:36:50;;;;;;;4.25;2.90;;;;;;;;;;5053001;28;20048;-91
2022/11/07 04:39:17;;;;;;;2.60;2.40;;;;;;;;;;5052714;28;20045;-91
2022/11/07 04:41:45;;;;;;;3.63;3.00;;;;;;;;;;5041589;28;20088;-91
2022/11/07 04:44:13;;;;;;;3.45;3.22;;;;;;;;;;5033093;28;20050;-92
2022/11/07 04:46:39;;;;;;;3.55;3.35;;;;;;;;;;5033259;28;20042;-91
2022/11/07 04:49:06;;;;;;;3.88;3.42;;;;;;;;;;5032909;28;20049;-92
2022/11/07 04:51:32;;;;;;;4.95;3.70;;;;;;;;;;5033008;28;20485;-91
2022/11/07 04:53:58;;;;;;;6.93;4.18;;;;;;;;;;5032957;28;20100;-92
2022/11/07 04:56:25;;;;;;;8.02;6.65;;;;;;;;;;5033509;28;20049;-91
2022/11/07 04:58:53;;;;;;;4.78;4.45;;;;;;;;;;5036446;28;20041;-91
2022/11/07 05:01:19;;;;;;;4.85;4.53;;;;;;;;;;5036397;28;20049;-90
2022/11/07 05:03:46;;;;;;;5.95;5.43;;;;;;;;;;5036167;28;20054;-90
2022/11/07 05:06:13;;;;;;;4.07;3.55;;;;;;;;;;5035774;28;20464;-88
2022/11/07 05:08:40;;;;;;;4.82;3.40;;;;;;;;;;5035764;28;20096;-88
2022/11/07 05:11:06;;;;;;;4.65;3.85;;;;;;;;;;5042702;28;20473;-90
2022/11/07 05:13:33;;;;;;;3.25;2.95;;;;;;;;;;5056221;28;20041;-90
2022/11/07 05:16:01;;;;;;;2.17;2.08;;;;;;;;;;5050728;28;20045;-89
2022/11/07 05:18:27;;;;;;;7.38;3.83;;;;;;;;;;5035476;28;20054;-89
2022/11/07 05:20:54;;;;;;;3.45;3.15;;;;;;;;;;5035274;28;20768;-89
2022/11/07 05:23:20;;;;;;;4.03;3.60;;;;;;;;;;5035999;28;20049;-90
2022/11/07 05:25:48;;;;;;;5.00;3.47;;;;;;;;;;5035650;28;20083;-91
2022/11/07 05:28:15;;;;;;;3.22;2.92;;;;;;;;;;5035929;28;20049;-90
2022/11/07 05:30:42;;;;;;;4.80;4.50;;;;;;;;;;5035807;28;20046;-89
2022/11/07 05:33:11;;;;;;;9.07;4.45;;;;;;;;;;5035791;28;20050;-90
2022/11/07 05:35:38;;;;;;;5.22;2.97;;;;;;;;;;5035569;28;20111;-89
2022/11/07 05:38:04;;;;;;;3.28;2.97;;;;;;;;;;5035607;28;20049;-89
2022/11/07 05:40:31;;;;;;;9.65;5.32;;;;;;;;;;5035611;28;20101;-90
2022/11/07 05:43:00;;;;;;;4.43;4.03;;;;;;;;;;5035644;28;20053;-90
2022/11/07 05:45:27;;;;;;;7.53;4.63;;;;;;;;;;5035395;28;20080;-89
2022/11/07 05:47:56;;;;;;;6.15;4.38;;;;;;;;;;5035228;28;20076;-89
2022/11/07 05:50:24;;;;;;;3.67;3.38;;;;;;;;;;5035365;28;20501;-88
2022/11/07 05:52:51;;;;;;;4.63;3.03;;;;;;;;;;5035420;28;20041;-89
2022/11/07 05:55:17;;;;;;;3.13;2.90;;;;;;;;;;5034830;28;20041;-89
2022/11/07 05:57:44;;;;;;;4.60;4.20;;;;;;;;;;5035491;28;20054;-89
2022/11/07 06:00:11;;;;;;;6.10;5.00;;;;;;;;;;5034461;28;20498;-89
2022/11/07 06:02:37;;;;;;;6.47;3.20;;;;;;;;;;5029802;28;20041;-89
2022/11/07 06:05:04;;;;;;;6.88;5.95;;;;;;;;;;5034362;28;20095;-88
2022/11/07 06:07:34;;;;;;;3.92;3.67;;;;;;;;;;5031963;28;20485;-90
2022/11/07 06:10:01;;;;;;;11.27;3.95;;;;;;;;;;5034795;28;20076;-90
2022/11/07 06:12:27;;;;;;;5.97;4.63;;;;;;;;;;5034983;28;20080;-90
2022/11/07 06:14:54;;;;;;;4.18;3.75;;;;;;;;;;5034522;28;20046;-89
2022/11/07 06:17:20;;;;;;;7.47;4.70;;;;;;;;;;5033700;28;20084;-89
2022/11/07 06:19:47;;;;;;;4.32;3.92;;;;;;;;;;5034501;28;20084;-90
2022/11/07 06:22:13;;;;;;;5.55;3.75;;;;;;;;;;5034611;28;20509;-90
2022/11/07 06:24:41;;;;;;;12.40;4.95;;;;;;;;;;5034579;28;20041;-89
2022/11/07 06:27:07;;;;;;;4.47;4.18;;;;;;;;;;5041214;28;20056;-88
2022/11/07 06:29:38;;;;;;;3.90;3.60;;;;;;;;;;5026404;28;20099;-89
2022/11/07 06:32:05;;;;;;;5.13;4.05;;;;;;;;;;5036568;28;20099;-88
2022/11/07 06:34:31;;;;;;;3.25;2.95;;;;;;;;;;5033357;28;20057;-88
2022/11/07 06:36:58;;;;;;;4.90;4.47;;;;;;;;;;5032881;28;20041;-88
2022/11/07 06:39:24;;;;;;;8.82;4.43;;;;;;;;;;5032674;28;20681;-88
2022/11/07 06:41:52;;;;;;;5.45;5.00;;;;;;;;;;5028988;28;20041;-88
2022/11/07 06:44:19;;;;;;;5.63;5.13;;;;;;;;;;5053228;28;20443;-88
2022/11/07 06:46:46;;;;;;;5.82;4.57;;;;;;;;;;5045844;28;20041;-88
2022/11/07 06:49:12;;;;;;;7.25;5.00;;;;;;;;;;5032829;28;20136;-88
2022/11/07 06:51:39;;;;;;;5.18;4.68;;;;;;;;;;5032326;28;20057;-88
2022/11/07 06:54:05;;;;;;;9.73;5.80;;;;;;;;;;5032805;28;20115;-88
2022/11/07 06:56:32;;;;;;;4.05;3.67;;;;;;;;;;5035342;28;20041;-89
2022/11/07 06:59:00;;;;;;;6.57;5.72;;;;;;;;;;5026118;28;20441;-88
2022/11/07 07:01:26;;;;;;;4.45;4.10;;;;;;;;;;5029528;28;20060;-89
2022/11/07 07:03:53;;;;;;;4.88;4.45;;;;;;;;;;5024272;28;20052;-88
2022/11/07 07:06:19;;;;;;;3.65;3.45;;;;;;;;;;5031415;28;20045;-88
2022/11/07 07:08:46;;;;;;;3.92;3.63;;;;;;;;;;5032882;28;20096;-88
2022/11/07 07:11:14;;;;;;;6.63;6.10;;;;;;;;;;5030279;28;20532;-88
2022/11/07 07:13:41;;;;;;;7.60;6.90;;;;;;;;;;5032155;28;20061;-88
2022/11/07 07:16:09;;;;;;;9.13;4.25;;;;;;;;;;5032346;28;20056;-88
2022/11/07 07:18:36;;;;;;;11.18;5.35;;;;;;;;;;5015709;28;20045;-88
2022/11/07 07:21:03;;;;;;;5.20;2.80;;;;;;;;;;5031812;28;20061;-87
2022/11/07 07:23:30;;;;;;;6.45;5.97;;;;;;;;;;5031919;28;20501;-89
2022/11/07 07:25:56;;;;;;;5.93;5.35;;;;;;;;;;5032454;28;20180;-88
2022/11/07 07:28:23;;;;;;;5.88;5.35;;;;;;;;;;5034720;28;20049;-89
2022/11/07 07:30:49;;;;;;;6.68;5.57;;;;;;;;;;5032097;28;20053;-89
2022/11/07 07:33:17;;;;;;;8.18;6.43;;;;;;;;;;5032144;28;20049;-88
2022/11/07 07:35:44;;;;;;;6.25;5.75;;;;;;;;;;5032334;28;20053;-89
2022/11/07 07:38:11;;;;;;;8.15;6.18;;;;;;;;;;5032610;28;20061;-89
2022/11/07 07:40:37;;;;;;;6.50;5.95;;;;;;;;;;5032375;28;20106;-89
2022/11/07 07:43:04;;;;;;;4.70;4.30;;;;;;;;;;5043285;28;20052;-88
2022/11/07 07:45:30;;;;;;;6.65;6.10;;;;;;;;;;5047351;28;20049;-87
2022/11/07 07:47:59;;;;;;;5.40;4.82;;;;;;;;;;5032139;28;20042;-88
2022/11/07 07:50:27;;;;;;;6.63;6.03;;;;;;;;;;5032248;28;20049;-88
2022/11/07 07:52:56;;;;;;;5.28;4.88;;;;;;;;;;5044618;28;20102;-88
2022/11/07 07:55:22;;;;;;;8.57;6.13;;;;;;;;;;5039414;28;20041;-88
2022/11/07 07:57:49;;;;;;;8.05;5.35;;;;;;;;;;5032102;28;20064;-88
2022/11/07 08:00:16;;;;;;;4.78;4.40;;;;;;;;;;5031264;28;20080;-88
2022/11/07 08:02:43;;;;;;;7.05;6.43;;;;;;;;;;5031326;28;20053;-87
2022/11/07 08:05:09;;;;;;;11.48;7.03;;;;;;;;;;5032157;28;20052;-87
2022/11/07 08:07:44;;;;;;;6.13;5.07;;;;;;;;;;5041312;28;20045;-87
2022/11/07 08:10:10;;;;;;;7.25;6.65;;;;;;;;;;5051387;28;20110;-87
2022/11/07 08:12:37;;;;;;;11.07;5.18;;;;;;;;;;5042605;28;20107;-87
2022/11/07 08:15:03;;;;;;;9.50;6.03;;;;;;;;;;5029288;28;20049;-87
2022/11/07 08:17:30;;;;;;;7.97;5.28;;;;;;;;;;5025153;28;20106;-87
2022/11/07 08:19:56;;;;;;;5.70;5.20;;;;;;;;;;5031218;28;20045;-88
2022/11/07 08:22:23;;;;;;;6.07;5.57;;;;;;;;;;5030632;28;20053;-88
2022/11/07 08:24:51;;;;;;;8.95;4.47;;;;;;;;;;5029559;28;20485;-87
2022/11/07 08:27:17;;;;;;;7.82;6.97;;;;;;;;;;5029771;28;20119;-86
2022/11/07 08:29:44;;;;;;;6.55;5.97;;;;;;;;;;5027808;28;20111;-86
2022/11/07 08:32:11;;;;;;;14.32;5.03;;;;;;;;;;5033273;28;20053;-86
2022/11/07 08:34:38;;;;;;;7.85;6.97;;;;;;;;;;5034296;28;20053;-87
2022/11/07 08:37:04;;;;;;;8.82;6.43;;;;;;;;;;5022357;28;20672;-87
2022/11/07 08:39:31;;;;;;;12.77;8.00;;;;;;;;;;5040055;28;20049;-87
2022/11/07 08:41:59;;;;;;;6.03;5.43;;;;;;;;;;5035271;28;20464;-86
2022/11/07 08:44:25;;;;;;;6.97;6.07;;;;;;;;;;5027953;28;20042;-86
2022/11/07 08:46:52;;;;;;;8.32;7.40;;;;;;;;;;5035821;28;20095;-86
2022/11/07 08:49:18;;;;;;;6.80;6.18;;;;;;;;;;5043236;28;20057;-86
2022/11/07 08:51:45;;;;;;;6.82;6.13;;;;;;;;;;5034493;28;20548;-86
2022/11/07 08:54:12;;;;;;;9.40;6.32;;;;;;;;;;5031573;28;20053;-86
2022/11/07 08:56:38;;;;;;;6.68;6.15;;;;;;;;;;5034152;28;20049;-86
2022/11/07 08:59:08;;;;;;;5.50;4.75;;;;;;;;;;5037033;28;20057;-86
2022/11/07 09:01:34;;;;;;;15.48;5.85;;;;;;;;;;5027779;28;20179;-86
2022/11/07 09:04:01;;;;;;;8.15;7.40;;;;;;;;;;5036813;28;20444;-86
2022/11/07 09:06:27;;;;;;;6.25;5.68;;;;;;;;;;5037911;28;20045;-86
2022/11/07 09:08:54;;;;;;;9.65;6.88;;;;;;;;;;5040601;28;20490;-86
2022/11/07 09:11:21;;;;;;;8.20;7.50;;;;;;;;;;5034616;28;20050;-87
2022/11/07 09:13:47;;;;;;;9.70;8.77;;;;;;;;;;5032038;28;20115;-87
2022/11/07 09:16:17;;;;;;;7.70;6.93;;;;;;;;;;5034353;28;20045;-87
2022/11/07 09:18:44;;;;;;;7.10;6.50;;;;;;;;;;5034107;28;20069;-87
2022/11/07 09:21:11;;;;;;;7.60;5.22;;;;;;;;;;5032928;28;20128;-87
2022/11/07 09:23:37;;;;;;;5.85;5.45;;;;;;;;;;5028069;28;20050;-87
2022/11/07 09:26:04;;;;;;;8.07;7.15;;;;;;;;;;5036667;28;20096;-87
2022/11/07 09:28:30;;;;;;;7.43;5.75;;;;;;;;;;5037859;28;20104;-87
2022/11/07 09:30:57;;;;;;;5.75;4.45;;;;;;;;;;5030184;28;20447;-87
2022/11/07 09:33:26;;;;;;;8.70;5.53;;;;;;;;;;5034631;28;20053;-87
2022/11/07 09:35:52;;;;;;;8.05;7.30;;;;;;;;;;5026713;28;20052;-88
2022/11/07 09:38:19;;;;;;;8.38;7.57;;;;;;;;;;5050475;28;20049;-87
2022/11/07 09:40:49;;;;;;;10.57;6.60;;;;;;;;;;5034010;28;20049;-87
2022/11/07 09:43:27;;;;;;;9.25;7.80;;;;;;;;;;5037974;28;20053;-87
2022/11/07 09:45:57;;;;;;;7.57;6.85;;;;;;;;;;5033840;28;20111;-87
2022/11/07 09:48:27;;;;;;;6.13;5.63;;;;;;;;;;5036998;28;20049;-87
2022/11/07 09:50:53;;;;;;;10.80;7.72;;;;;;;;;;5034103;28;20049;-87
2022/11/07 09:53:25;;;;;;;8.50;7.68;;;;;;;;;;5035261;28;20053;-87
2022/11/07 09:55:53;;;;;;;9.82;8.52;;;;;;;;;;5034259;28;20049;-87
2022/11/07 09:58:24;;;;;;;8.88;7.15;;;;;;;;;;5037555;28;20045;-86
2022/11/07 10:00:51;;;;;;;13.55;8.18;;;;;;;;;;5033764;28;20087;-87
2022/11/07 10:03:18;;;;;;;8.48;7.88;;;;;;;;;;5034186;28;20050;-87
2022/11/07 10:05:50;;;;;;;10.50;9.45;;;;;;;;;;5025480;28;20127;-88
2022/11/07 10:08:19;;;;;;;10.70;9.25;;;;;;;;;;5038495;28;20049;-87
2022/11/07 10:10:49;;;;;;;12.48;8.20;;;;;;;;;;5033580;28;20119;-87
2022/11/07 10:13:33;;;;;;;9.40;6.75;;;;;;;;;;5034029;28;20053;-87
2022/11/07 10:16:04;;;;;;;9.07;8.32;;;;;;;;;;5028801;28;20501;-87
2022/11/07 10:18:41;;;;;;;15.23;8.50;;;;;;;;;;5022432;28;20049;-87
2022/11/07 10:21:15;;;;;;;9.52;8.48;;;;;;;;;;5027920;28;20103;-87
2022/11/07 10:23:49;;;;;;;7.25;6.10;;;;;;;;;;5032653;28;20489;-87
2022/11/07 10:26:19;;;;;;;8.20;7.28;;;;;;;;;;5033002;28;20045;-86
2022/11/07 10:28:46;;;;;;;11.98;8.05;;;;;;;;;;5034252;28;20133;-88
2022/11/07 10:31:14;;;;;;;10.02;9.10;;;;;;;;;;5039068;28;20057;-87
2022/11/07 10:33:45;;;;;;;11.63;8.25;;;;;;;;;;5038530;28;20049;-87
2022/11/07 10:36:17;;;;;;;10.43;9.15;;;;;;;;;;5031033;28;20057;-87
2022/11/07 10:38:43;;;;;;;9.15;8.45;;;;;;;;;;5027534;28;20580;-87
2022/11/07 10:41:14;;;;;;;7.82;7.28;;;;;;;;;;5033572;28;20053;-86
2022/11/07 10:43:42;;;;;;;9.32;7.97;;;;;;;;;;5033244;28;20115;-86
2022/11/07 10:46:11;;;;;;;9.73;8.55;;;;;;;;;;5033287;28;20045;-86
2022/11/07 10:48:37;;;;;;;10.65;9.63;;;;;;;;;;5032631;28;20056;-87
2022/11/07 10:51:04;;;;;;;12.32;11.02;;;;;;;;;;5033159;28;20053;-86
2022/11/07 10:53:32;;;;;;;11.70;10.48;;;;;;;;;;5027540;28;20107;-86
2022/11/07 10:55:58;;;;;;;13.23;9.45;;;;;;;;;;5033013;28;20118;-87
2022/11/07 10:58:26;;;;;;;14.27;10.95;;;;;;;;;;5025975;28;20079;-86
2022/11/07 11:00:57;;;;;;;16.08;9.52;;;;;;;;;;5029143;28;20095;-86
2022/11/07 11:03:26;;;;;;;12.50;11.43;;;;;;;;;;5032178;28;20038;-87
2022/11/07 11:05:53;;;;;;;11.73;10.40;;;;;;;;;;5012373;28;20089;-87
2022/11/07 11:08:20;;;;;;;10.30;9.40;;;;;;;;;;5027304;28;20087;-87
2022/11/07 11:10:48;;;;;;;10.60;9.65;;;;;;;;;;5051464;28;20055;-87
2022/11/07 11:13:25;;;;;;;9.57;8.13;;;;;;;;;;5034927;28;20053;-86
2022/11/07 11:15:51;;;;;;;12.50;10.40;;;;;;;;;;5032707;28;20057;-87
2022/11/07 11:18:18;;;;;;;8.55;6.38;;;;;;;;;;5032535;28;20570;-86
2022/11/07 11:20:46;;;;;;;11.77;10.77;;;;;;;;;;5028005;28;20576;-87
2022/11/07 11:23:17;;;;;;;14.75;9.27;;;;;;;;;;5033754;28;20055;-87
2022/11/07 11:25:45;;;;;;;10.68;8.25;;;;;;;;;;5040740;28;20060;-87
2022/11/07 11:28:18;;;;;;;7.07;5.72;;;;;;;;;;5031903;28;20128;-87
2022/11/07 11:30:47;;;;;;;12.07;10.88;;;;;;;;;;5031951;28;20577;-87
2022/11/07 11:33:15;;;;;;;10.18;8.68;;;;;;;;;;5034255;28;20127;-88
2022/11/07 11:35:45;;;;;;;10.23;9.13;;;;;;;;;;5051472;28;20086;-87
2022/11/07 11:38:14;;;;;;;16.75;8.80;;;;;;;;;;5041326;28;20118;-88
2022/11/07 11:40:43;;;;;;;9.18;8.25;;;;;;;;;;5031922;28;20124;-87
2022/11/07 11:43:17;;;;;;;12.15;11.13;;;;;;;;;;5032893;28;20140;-88
2022/11/07 11:45:50;;;;;;;12.45;10.45;;;;;;;;;;5035474;28;20563;-87
2022/11/07 11:48:23;;;;;;;9.48;8.57;;;;;;;;;;5031689;28;20049;-87
2022/11/07 11:50:52;;;;;;;13.48;8.65;;;;;;;;;;5031267;28;20144;-87
2022/11/07 11:53:20;;;;;;;10.77;8.25;;;;;;;;;;5032518;28;20049;-87
2022/11/07 11:55:53;;;;;;;13.52;10.27;;;;;;;;;;5051729;28;20139;-88
2022/11/07 11:58:28;;;;;;;10.43;9.40;;;;;;;;;;5051376;28;20515;-87
2022/11/07 12:01:00;;;;;;;11.43;9.52;;;;;;;;;;5038008;28;20096;-87
2022/11/07 12:03:45;;;;;;;15.60;9.05;;;;;;;;;;5031828;28;20049;-88
2022/11/07 12:06:14;;;;;;;12.95;9.88;;;;;;;;;;5027155;28;20460;-87
2022/11/07 12:08:52;;;;;;;11.65;10.50;;;;;;;;;;5030751;28;20056;-88
2022/11/07 12:11:21;;;;;;;11.18;10.07;;;;;;;;;;5031898;28;20119;-88
2022/11/07 12:13:55;;;;;;;9.70;8.60;;;;;;;;;;5030887;28;20042;-87
2022/11/07 12:16:27;;;;;;;11.52;10.48;;;;;;;;;;5031870;28;20793;-87
2022/11/07 12:18:57;;;;;;;10.43;9.43;;;;;;;;;;5030941;28;20108;-87
2022/11/07 12:21:27;;;;;;;8.57;6.95;;;;;;;;;;5026808;28;20046;-87
2022/11/07 12:23:59;;;;;;;11.77;9.63;;;;;;;;;;5030465;28;20095;-88
2022/11/07 12:26:28;;;;;;;10.05;8.07;;;;;;;;;;5011919;28;20104;-88
2022/11/07 12:28:59;;;;;;;12.15;8.85;;;;;;;;;;5021905;28;20123;-88
2022/11/07 12:31:35;;;;;;;11.30;10.27;;;;;;;;;;5030891;28;20057;-88
2022/11/07 12:34:10;;;;;;;9.85;8.30;;;;;;;;;;5036496;28;20052;-88
2022/11/07 12:36:43;;;;;;;8.30;7.70;;;;;;;;;;5030169;28;20053;-87
2022/11/07 12:39:22;;;;;;;10.35;9.20;;;;;;;;;;5037268;28;20048;-88
2022/11/07 12:41:55;;;;;;;9.77;8.90;;;;;;;;;;5051209;28;20057;-87
2022/11/07 12:44:28;;;;;;;10.32;8.93;;;;;;;;;;5040971;28;20097;-87
2022/11/07 12:46:58;;;;;;;10.88;8.85;;;;;;;;;;5025256;28;20083;-87
2022/11/07 12:49:40;;;;;;;11.52;10.10;;;;;;;;;;5031404;28;20060;-87
2022/11/07 12:52:07;;;;;;;;;;;;;;;;;;5031705;28;20053;-88
2022/11/07 12:54:40;;;;;;;10.15;9.00;;;;;;;;;;5039793;28;20380;-87
2022/11/07 12:57:09;;;;;;;8.98;8.13;;;;;;;;;;5042458;28;20669;-88
2022/11/07 12:59:36;;;;;;;10.57;8.88;;;;;;;;;;5028952;28;20092;-88
2022/11/07 13:02:11;;;;;;;13.65;9.57;;;;;;;;;;5035806;28;20053;-88
2022/11/07 13:04:41;;;;;;;12.27;7.22;;;;;;;;;;5029044;28;20053;-88
2022/11/07 13:07:11;;;;;;;12.55;9.90;;;;;;;;;;5030886;28;20111;-87
2022/11/07 13:09:41;;;;;;;9.95;8.90;;;;;;;;;;5030967;28;20099;-87
2022/11/07 13:12:11;;;;;;;11.68;10.50;;;;;;;;;;5031165;28;20057;-87
2022/11/07 13:14:38;;;;;;;9.13;8.15;;;;;;;;;;5030519;28;20187;-87
2022/11/07 13:17:14;;;;;;;12.45;8.98;;;;;;;;;;5019149;28;20127;-88
2022/11/07 13:19:41;;;;;;;10.45;9.45;;;;;;;;;;5034053;28;20436;-87
2022/11/07 13:22:19;;;;;;;10.68;8.45;;;;;;;;;;5034476;28;20136;-87
2022/11/07 13:24:50;;;;;;;11.55;7.85;;;;;;;;;;5034472;28;20582;-88
2022/11/07 13:27:21;;;;;;;12.93;9.88;;;;;;;;;;5034257;28;20049;-88
2022/11/07 13:29:48;;;;;;;8.45;7.70;;;;;;;;;;5036651;28;20123;-87
2022/11/07 13:32:16;;;;;;;10.90;8.88;;;;;;;;;;5034672;28;20054;-87
2022/11/07 13:34:45;;;;;;;10.10;9.13;;;;;;;;;;5032891;28;20045;-88
2022/11/07 13:37:15;;;;;;;8.40;7.65;;;;;;;;;;5036755;28;20129;-87
2022/11/07 13:39:42;;;;;;;8.25;7.40;;;;;;;;;;5034449;28;20045;-89
2022/11/07 13:42:13;;;;;;;10.50;7.47;;;;;;;;;;5032483;28;20103;-86
2022/11/07 13:44:40;;;;;;;10.38;8.68;;;;;;;;;;5032830;28;20042;-88
2022/11/07 13:47:10;;;;;;;12.50;11.30;;;;;;;;;;5034676;28;20460;-88
2022/11/07 13:49:40;;;;;;;9.65;8.40;;;;;;;;;;5032125;28;20103;-88
2022/11/07 13:52:11;;;;;;;10.90;9.88;;;;;;;;;;5034413;28;20049;-88
2022/11/07 13:54:41;;;;;;;11.98;9.05;;;;;;;;;;5039821;28;20129;-88
2022/11/07 13:57:13;;;;;;;6.82;6.13;;;;;;;;;;5053952;28;20087;-88
2022/11/07 13:59:43;;;;;;;10.95;8.35;;;;;;;;;;5053919;28;20049;-88
2022/11/07 14:02:18;;;;;;;10.55;8.20;;;;;;;;;;5053873;28;20049;-88
2022/11/07 14:04:50;;;;;;;12.38;9.13;;;;;;;;;;5053399;28;20072;-88
2022/11/07 14:07:17;;;;;;;11.40;9.07;;;;;;;;;;5013742;28;20453;-88
2022/11/07 14:09:44;;;;;;;12.70;11.40;;;;;;;;;;5025413;28;20444;-88
2022/11/07 14:12:17;;;;;;;13.60;9.25;;;;;;;;;;5053591;28;20095;-88
2022/11/07 14:14:43;;;;;;;10.90;8.82;;;;;;;;;;5048402;28;20452;-88
2022/11/07 14:17:13;;;;;;;8.98;7.75;;;;;;;;;;5016806;28;20053;-88
2022/11/07 14:19:39;;;;;;;9.43;8.43;;;;;;;;;;5033315;28;20084;-88
2022/11/07 14:22:20;;;;;;;9.13;8.23;;;;;;;;;;5023929;28;20108;-88
2022/11/07 14:24:50;;;;;;;11.05;9.95;;;;;;;;;;5017332;28;20057;-88
2022/11/07 14:27:17;;;;;;;9.43;8.52;;;;;;;;;;5014042;28;20050;-88
2022/11/07 14:29:50;;;;;;;10.88;9.38;;;;;;;;;;5025084;28;20046;-88
2022/11/07 14:32:17;;;;;;;9.82;7.85;;;;;;;;;;5028944;28;20065;-88
2022/11/07 14:34:44;;;;;;;13.52;9.23;;;;;;;;;;5028978;28;20129;-88
2022/11/07 14:37:13;;;;;;;9.93;8.50;;;;;;;;;;5033432;28;20053;-87
2022/11/07 14:39:40;;;;;;;10.32;9.30;;;;;;;;;;5035080;28;20045;-87
2022/11/07 14:42:07;;;;;;;12.02;8.55;;;;;;;;;;5033439;28;20494;-87
2022/11/07 14:44:34;;;;;;;9.63;7.90;;;;;;;;;;5033481;28;20482;-88
2022/11/07 14:47:01;;;;;;;9.43;8.57;;;;;;;;;;5033196;28;20050;-87
2022/11/07 14:49:31;;;;;;;9.25;7.88;;;;;;;;;;5032871;28;20041;-87
2022/11/07 14:51:57;;;;;;;10.98;9.43;;;;;;;;;;5032863;28;20061;-87
2022/11/07 14:54:28;;;;;;;10.70;8.20;;;;;;;;;;5033251;28;20050;-87
2022/11/07 14:56:56;;;;;;;9.63;8.73;;;;;;;;;;5033195;28;20405;-87